createdAt,value
2022-10-23T08:52:40.041Z,11.37
2022-10-23T09:03:36.708Z,11.45
2022-10-23T09:09:15.849Z,11.56
2022-10-23T09:15:09.817Z,11.68
2022-10-23T09:20:45.100Z,11.67
2022-10-23T09:26:13.832Z,11.85
2022-10-23T09:31:17.197Z,11.66
2022-10-23T09:36:35.001Z,11.54
2022-10-23T09:41:40.551Z,11.22
2022-10-23T09:46:46.365Z,11.23
2022-10-23T09:51:51.666Z,11.51
2022-10-23T09:56:55.028Z,11.69
2022-10-23T10:02:28.286Z,11.40
2022-10-23T10:08:05.850Z,11.41
2022-10-23T10:13:31.565Z,11.49
2022-10-23T10:18:41.703Z,11.51
2022-10-23T10:24:38.608Z,11.46
2022-10-23T10:29:49.128Z,11.72
2022-10-23T10:35:27.274Z,11.92
2022-10-23T10:40:36.339Z,11.97
2022-10-23T10:46:01.036Z,11.93
2022-10-23T10:51:08.326Z,12.08
2022-10-23T10:56:44.637Z,12.36
2022-10-23T11:01:56.594Z,12.24
2022-10-23T11:07:01.620Z,12.20
2022-10-23T11:12:03.670Z,12.22
2022-10-23T11:17:17.684Z,12.27
2022-10-23T11:22:38.899Z,12.16
2022-10-23T11:28:17.713Z,12.09
2022-10-23T11:45:26.825Z,12.40
2022-10-23T11:56:20.491Z,12.57
2022-10-23T12:01:35.920Z,12.66
2022-10-23T12:18:33.668Z,12.77
2022-10-23T12:23:52.590Z,12.68
2022-10-23T12:35:27.651Z,12.69
2022-10-23T12:40:38.057Z,12.73
2022-10-23T12:51:09.583Z,12.69
2022-10-23T13:01:37.015Z,12.75
2022-10-23T13:12:35.609Z,12.81
2022-10-23T13:17:47.857Z,12.85
2022-10-23T13:29:09.568Z,13.03
2022-10-23T13:35:03.711Z,12.99
2022-10-23T13:46:25.019Z,12.97
2022-10-23T14:48:46.309Z,13.39
2022-10-23T14:59:54.830Z,13.32
2022-10-23T15:04:56.648Z,13.21
2022-10-23T15:09:59.042Z,13.18
2022-10-23T15:15:08.822Z,13.04
2022-10-23T15:20:16.082Z,13.04
2022-10-23T15:25:18.246Z,13.03
2022-10-23T15:30:49.039Z,13.04
2022-10-23T23:10:55.564Z,13.24
